sensor_id;sensor_type;location;lat;lon;timestamp;P1;durP1;ratioP1;P2;durP2;ratioP2
55063;SDS011;40963;52.168;21.296;2023-11-22T00:01:19;8.93;;;5.05;;
55063;SDS011;40963;52.168;21.296;2023-11-22T00:03:45;8.63;;;5.38;;
55063;SDS011;40963;52.168;21.296;2023-11-22T00:06:10;12.43;;;5.25;;
55063;SDS011;40963;52.168;21.296;2023-11-22T00:08:37;13.20;;;5.50;;
55063;SDS011;40963;52.168;21.296;2023-11-22T00:11:02;6.15;;;4.53;;
55063;SDS011;40963;52.168;21.296;2023-11-22T00:13:28;12.82;;;5.75;;
55063;SDS011;40963;52.168;21.296;2023-11-22T00:15:54;10.50;;;6.03;;
55063;SDS011;40963;52.168;21.296;2023-11-22T00:18:20;7.85;;;4.93;;
55063;SDS011;40963;52.168;21.296;2023-11-22T00:20:46;17.00;;;7.57;;
55063;SDS011;40963;52.168;21.296;2023-11-22T00:23:12;9.88;;;5.45;;
55063;SDS011;40963;52.168;21.296;2023-11-22T00:25:38;10.73;;;5.60;;
55063;SDS011;40963;52.168;21.296;2023-11-22T00:28:03;11.88;;;6.05;;
55063;SDS011;40963;52.168;21.296;2023-11-22T00:30:30;10.75;;;5.53;;
55063;SDS011;40963;52.168;21.296;2023-11-22T00:32:56;15.02;;;6.65;;
55063;SDS011;40963;52.168;21.296;2023-11-22T00:35:22;12.32;;;5.60;;
55063;SDS011;40963;52.168;21.296;2023-11-22T00:37:48;10.23;;;5.70;;
55063;SDS011;40963;52.168;21.296;2023-11-22T00:40:14;13.57;;;6.25;;
55063;SDS011;40963;52.168;21.296;2023-11-22T00:42:39;9.90;;;5.03;;
55063;SDS011;40963;52.168;21.296;2023-11-22T00:45:07;12.32;;;6.85;;
55063;SDS011;40963;52.168;21.296;2023-11-22T00:47:35;16.60;;;6.45;;
55063;SDS011;40963;52.168;21.296;2023-11-22T00:50:01;7.00;;;3.90;;
55063;SDS011;40963;52.168;21.296;2023-11-22T00:52:29;9.82;;;5.32;;
55063;SDS011;40963;52.168;21.296;2023-11-22T00:54:55;11.43;;;5.80;;
55063;SDS011;40963;52.168;21.296;2023-11-22T00:57:21;11.93;;;4.43;;
55063;SDS011;40963;52.168;21.296;2023-11-22T00:59:46;10.23;;;4.50;;
55063;SDS011;40963;52.168;21.296;2023-11-22T01:02:13;15.02;;;6.50;;
55063;SDS011;40963;52.168;21.296;2023-11-22T01:04:38;19.95;;;4.22;;
55063;SDS011;40963;52.168;21.296;2023-11-22T01:07:05;14.93;;;6.63;;
55063;SDS011;40963;52.168;21.296;2023-11-22T01:09:31;11.95;;;5.90;;
55063;SDS011;40963;52.168;21.296;2023-11-22T01:11:57;6.40;;;3.38;;
55063;SDS011;40963;52.168;21.296;2023-11-22T01:14:23;10.25;;;5.50;;
55063;SDS011;40963;52.168;21.296;2023-11-22T01:16:49;8.10;;;3.75;;
55063;SDS011;40963;52.168;21.296;2023-11-22T01:19:15;7.43;;;4.18;;
55063;SDS011;40963;52.168;21.296;2023-11-22T01:21:41;10.43;;;5.40;;
55063;SDS011;40963;52.168;21.296;2023-11-22T01:24:06;10.30;;;5.47;;
55063;SDS011;40963;52.168;21.296;2023-11-22T01:26:32;7.38;;;3.85;;
55063;SDS011;40963;52.168;21.296;2023-11-22T01:28:58;8.13;;;4.13;;
55063;SDS011;40963;52.168;21.296;2023-11-22T01:31:25;5.88;;;4.05;;
55063;SDS011;40963;52.168;21.296;2023-11-22T01:33:52;27.63;;;3.42;;
55063;SDS011;40963;52.168;21.296;2023-11-22T01:36:18;7.28;;;3.75;;
55063;SDS011;40963;52.168;21.296;2023-11-22T01:38:44;13.18;;;5.25;;
55063;SDS011;40963;52.168;21.296;2023-11-22T01:41:11;4.00;;;3.25;;
55063;SDS011;40963;52.168;21.296;2023-11-22T01:43:38;6.20;;;3.53;;
55063;SDS011;40963;52.168;21.296;2023-11-22T01:46:05;8.20;;;3.95;;
55063;SDS011;40963;52.168;21.296;2023-11-22T01:48:32;9.05;;;4.25;;
55063;SDS011;40963;52.168;21.296;2023-11-22T01:50:57;7.20;;;3.85;;
55063;SDS011;40963;52.168;21.296;2023-11-22T01:53:23;10.15;;;5.95;;
55063;SDS011;40963;52.168;21.296;2023-11-22T01:55:49;4.97;;;3.47;;
55063;SDS011;40963;52.168;21.296;2023-11-22T01:58:16;10.23;;;4.18;;
55063;SDS011;40963;52.168;21.296;2023-11-22T02:00:44;9.95;;;4.47;;
55063;SDS011;40963;52.168;21.296;2023-11-22T02:03:15;5.28;;;4.05;;
55063;SDS011;40963;52.168;21.296;2023-11-22T02:05:44;5.78;;;3.53;;
55063;SDS011;40963;52.168;21.296;2023-11-22T02:08:10;5.43;;;3.50;;
55063;SDS011;40963;52.168;21.296;2023-11-22T02:10:36;5.90;;;4.00;;
55063;SDS011;40963;52.168;21.296;2023-11-22T02:13:02;8.73;;;4.40;;
55063;SDS011;40963;52.168;21.296;2023-11-22T02:15:35;5.07;;;3.30;;
55063;SDS011;40963;52.168;21.296;2023-11-22T02:18:04;6.57;;;4.00;;
55063;SDS011;40963;52.168;21.296;2023-11-22T02:20:31;7.53;;;4.70;;
55063;SDS011;40963;52.168;21.296;2023-11-22T02:23:01;8.60;;;4.18;;
55063;SDS011;40963;52.168;21.296;2023-11-22T02:25:36;5.43;;;3.85;;
55063;SDS011;40963;52.168;21.296;2023-11-22T02:28:02;6.15;;;4.28;;
55063;SDS011;40963;52.168;21.296;2023-11-22T02:30:28;4.40;;;3.17;;
55063;SDS011;40963;52.168;21.296;2023-11-22T02:32:54;15.00;;;4.18;;
55063;SDS011;40963;52.168;21.296;2023-11-22T02:35:19;5.63;;;3.83;;
55063;SDS011;40963;52.168;21.296;2023-11-22T02:37:45;4.57;;;3.40;;
55063;SDS011;40963;52.168;21.296;2023-11-22T02:40:19;4.32;;;2.95;;
55063;SDS011;40963;52.168;21.296;2023-11-22T02:42:48;10.48;;;4.80;;
55063;SDS011;40963;52.168;21.296;2023-11-22T02:45:15;9.25;;;4.00;;
55063;SDS011;40963;52.168;21.296;2023-11-22T02:47:42;5.72;;;3.85;;
55063;SDS011;40963;52.168;21.296;2023-11-22T02:50:09;5.70;;;3.58;;
55063;SDS011;40963;52.168;21.296;2023-11-22T02:52:36;7.00;;;3.75;;
55063;SDS011;40963;52.168;21.296;2023-11-22T02:55:02;10.38;;;4.00;;
55063;SDS011;40963;52.168;21.296;2023-11-22T02:57:29;2.70;;;2.45;;
55063;SDS011;40963;52.168;21.296;2023-11-22T02:59:56;5.70;;;3.30;;
55063;SDS011;40963;52.168;21.296;2023-11-22T03:02:22;8.45;;;3.50;;
55063;SDS011;40963;52.168;21.296;2023-11-22T03:04:49;12.30;;;3.22;;
55063;SDS011;40963;52.168;21.296;2023-11-22T03:07:17;6.18;;;3.33;;
55063;SDS011;40963;52.168;21.296;2023-11-22T03:09:42;5.72;;;3.25;;
55063;SDS011;40963;52.168;21.296;2023-11-22T03:12:10;5.45;;;4.28;;
55063;SDS011;40963;52.168;21.296;2023-11-22T03:14:38;7.80;;;4.68;;
55063;SDS011;40963;52.168;21.296;2023-11-22T03:17:04;3.42;;;2.75;;
55063;SDS011;40963;52.168;21.296;2023-11-22T03:19:30;6.18;;;3.28;;
55063;SDS011;40963;52.168;21.296;2023-11-22T03:21:59;7.05;;;3.90;;
55063;SDS011;40963;52.168;21.296;2023-11-22T03:24:25;3.08;;;2.42;;
55063;SDS011;40963;52.168;21.296;2023-11-22T03:26:50;5.45;;;3.38;;
55063;SDS011;40963;52.168;21.296;2023-11-22T03:29:17;3.78;;;3.05;;
55063;SDS011;40963;52.168;21.296;2023-11-22T03:31:43;3.83;;;3.03;;
55063;SDS011;40963;52.168;21.296;2023-11-22T03:34:09;5.53;;;3.95;;
55063;SDS011;40963;52.168;21.296;2023-11-22T03:36:35;5.63;;;3.20;;
55063;SDS011;40963;52.168;21.296;2023-11-22T03:39:01;7.47;;;3.30;;
55063;SDS011;40963;52.168;21.296;2023-11-22T03:41:27;5.75;;;3.90;;
55063;SDS011;40963;52.168;21.296;2023-11-22T03:43:53;3.72;;;2.90;;
55063;SDS011;40963;52.168;21.296;2023-11-22T03:46:18;8.27;;;4.18;;
55063;SDS011;40963;52.168;21.296;2023-11-22T03:48:44;5.22;;;3.30;;
55063;SDS011;40963;52.168;21.296;2023-11-22T03:51:10;5.90;;;3.80;;
55063;SDS011;40963;52.168;21.296;2023-11-22T03:53:36;5.10;;;4.00;;
55063;SDS011;40963;52.168;21.296;2023-11-22T03:56:02;2.70;;;2.53;;
55063;SDS011;40963;52.168;21.296;2023-11-22T03:58:27;2.05;;;1.95;;
55063;SDS011;40963;52.168;21.296;2023-11-22T04:00:53;4.50;;;2.88;;
55063;SDS011;40963;52.168;21.296;2023-11-22T04:03:18;6.50;;;3.78;;
55063;SDS011;40963;52.168;21.296;2023-11-22T04:05:44;8.63;;;3.92;;
55063;SDS011;40963;52.168;21.296;2023-11-22T04:08:09;4.93;;;2.72;;
55063;SDS011;40963;52.168;21.296;2023-11-22T04:10:36;2.80;;;2.53;;
55063;SDS011;40963;52.168;21.296;2023-11-22T04:13:01;5.00;;;3.13;;
55063;SDS011;40963;52.168;21.296;2023-11-22T04:15:27;8.02;;;3.90;;
55063;SDS011;40963;52.168;21.296;2023-11-22T04:17:52;5.10;;;3.63;;
55063;SDS011;40963;52.168;21.296;2023-11-22T04:20:21;7.63;;;3.67;;
55063;SDS011;40963;52.168;21.296;2023-11-22T04:22:46;5.47;;;3.80;;
55063;SDS011;40963;52.168;21.296;2023-11-22T04:25:12;3.33;;;2.65;;
55063;SDS011;40963;52.168;21.296;2023-11-22T04:27:41;6.30;;;4.20;;
55063;SDS011;40963;52.168;21.296;2023-11-22T04:30:07;5.72;;;3.55;;
55063;SDS011;40963;52.168;21.296;2023-11-22T04:32:38;6.30;;;3.88;;
55063;SDS011;40963;52.168;21.296;2023-11-22T04:35:04;10.63;;;4.63;;
55063;SDS011;40963;52.168;21.296;2023-11-22T04:37:30;3.55;;;3.05;;
55063;SDS011;40963;52.168;21.296;2023-11-22T04:39:57;5.13;;;3.22;;
55063;SDS011;40963;52.168;21.296;2023-11-22T04:42:26;8.07;;;3.80;;
55063;SDS011;40963;52.168;21.296;2023-11-22T04:44:53;7.22;;;3.63;;
55063;SDS011;40963;52.168;21.296;2023-11-22T04:47:19;7.13;;;3.58;;
55063;SDS011;40963;52.168;21.296;2023-11-22T04:49:44;3.83;;;2.63;;
55063;SDS011;40963;52.168;21.296;2023-11-22T04:52:10;15.60;;;2.75;;
55063;SDS011;40963;52.168;21.296;2023-11-22T04:54:35;5.00;;;2.95;;
55063;SDS011;40963;52.168;21.296;2023-11-22T04:57:01;5.35;;;3.08;;
55063;SDS011;40963;52.168;21.296;2023-11-22T04:59:26;7.25;;;4.40;;
55063;SDS011;40963;52.168;21.296;2023-11-22T05:01:52;2.65;;;2.45;;
55063;SDS011;40963;52.168;21.296;2023-11-22T05:04:18;5.57;;;3.25;;
55063;SDS011;40963;52.168;21.296;2023-11-22T05:06:44;5.05;;;3.38;;
55063;SDS011;40963;52.168;21.296;2023-11-22T05:09:10;5.18;;;3.45;;
55063;SDS011;40963;52.168;21.296;2023-11-22T05:11:38;6.30;;;3.92;;
55063;SDS011;40963;52.168;21.296;2023-11-22T05:14:06;4.70;;;2.88;;
55063;SDS011;40963;52.168;21.296;2023-11-22T05:16:32;6.25;;;3.13;;
55063;SDS011;40963;52.168;21.296;2023-11-22T05:18:58;3.08;;;2.22;;
55063;SDS011;40963;52.168;21.296;2023-11-22T05:21:24;4.15;;;2.60;;
55063;SDS011;40963;52.168;21.296;2023-11-22T05:23:50;2.95;;;2.70;;
55063;SDS011;40963;52.168;21.296;2023-11-22T05:26:15;4.60;;;2.67;;
55063;SDS011;40963;52.168;21.296;2023-11-22T05:28:41;3.13;;;2.50;;
55063;SDS011;40963;52.168;21.296;2023-11-22T05:31:06;3.55;;;3.10;;
55063;SDS011;40963;52.168;21.296;2023-11-22T05:33:32;5.55;;;2.20;;
55063;SDS011;40963;52.168;21.296;2023-11-22T05:35:58;4.10;;;2.85;;
55063;SDS011;40963;52.168;21.296;2023-11-22T05:38:23;3.03;;;2.47;;
55063;SDS011;40963;52.168;21.296;2023-11-22T05:40:50;6.03;;;3.60;;
55063;SDS011;40963;52.168;21.296;2023-11-22T05:43:16;6.07;;;4.45;;
55063;SDS011;40963;52.168;21.296;2023-11-22T05:45:42;6.22;;;4.20;;
55063;SDS011;40963;52.168;21.296;2023-11-22T05:48:08;6.38;;;3.67;;
55063;SDS011;40963;52.168;21.296;2023-11-22T05:50:34;5.90;;;3.70;;
55063;SDS011;40963;52.168;21.296;2023-11-22T05:52:59;4.80;;;2.45;;
55063;SDS011;40963;52.168;21.296;2023-11-22T05:55:25;14.00;;;4.53;;
55063;SDS011;40963;52.168;21.296;2023-11-22T05:57:50;8.48;;;4.38;;
55063;SDS011;40963;52.168;21.296;2023-11-22T06:00:16;8.38;;;5.07;;
55063;SDS011;40963;52.168;21.296;2023-11-22T06:02:42;18.58;;;7.38;;
55063;SDS011;40963;52.168;21.296;2023-11-22T06:05:07;6.18;;;3.50;;
55063;SDS011;40963;52.168;21.296;2023-11-22T06:07:34;9.65;;;4.47;;
55063;SDS011;40963;52.168;21.296;2023-11-22T06:09:59;8.88;;;4.15;;
55063;SDS011;40963;52.168;21.296;2023-11-22T06:12:28;6.40;;;3.90;;
55063;SDS011;40963;52.168;21.296;2023-11-22T06:14:53;9.73;;;4.32;;
55063;SDS011;40963;52.168;21.296;2023-11-22T06:17:19;12.30;;;4.22;;
55063;SDS011;40963;52.168;21.296;2023-11-22T06:19:45;9.85;;;3.90;;
55063;SDS011;40963;52.168;21.296;2023-11-22T06:22:11;5.07;;;3.22;;
55063;SDS011;40963;52.168;21.296;2023-11-22T06:24:37;8.07;;;5.15;;
55063;SDS011;40963;52.168;21.296;2023-11-22T06:27:03;17.38;;;5.40;;
55063;SDS011;40963;52.168;21.296;2023-11-22T06:29:29;21.58;;;7.78;;
55063;SDS011;40963;52.168;21.296;2023-11-22T06:31:54;16.13;;;5.95;;
55063;SDS011;40963;52.168;21.296;2023-11-22T06:34:20;10.20;;;5.05;;
55063;SDS011;40963;52.168;21.296;2023-11-22T06:36:45;14.63;;;5.95;;
55063;SDS011;40963;52.168;21.296;2023-11-22T06:39:11;17.38;;;6.35;;
55063;SDS011;40963;52.168;21.296;2023-11-22T06:41:40;21.63;;;6.43;;
55063;SDS011;40963;52.168;21.296;2023-11-22T06:44:06;12.30;;;4.85;;
55063;SDS011;40963;52.168;21.296;2023-11-22T06:46:32;16.40;;;5.22;;
55063;SDS011;40963;52.168;21.296;2023-11-22T06:48:57;11.98;;;6.28;;
55063;SDS011;40963;52.168;21.296;2023-11-22T06:51:23;10.82;;;6.50;;
55063;SDS011;40963;52.168;21.296;2023-11-22T06:53:49;10.05;;;5.72;;
55063;SDS011;40963;52.168;21.296;2023-11-22T06:56:17;7.40;;;4.35;;
55063;SDS011;40963;52.168;21.296;2023-11-22T06:58:43;7.32;;;4.70;;
55063;SDS011;40963;52.168;21.296;2023-11-22T07:01:08;11.90;;;4.60;;
55063;SDS011;40963;52.168;21.296;2023-11-22T07:03:35;8.57;;;5.13;;
55063;SDS011;40963;52.168;21.296;2023-11-22T07:06:01;26.30;;;9.05;;
55063;SDS011;40963;52.168;21.296;2023-11-22T07:08:27;16.67;;;8.23;;
55063;SDS011;40963;52.168;21.296;2023-11-22T07:10:53;12.90;;;6.63;;
55063;SDS011;40963;52.168;21.296;2023-11-22T07:13:19;15.50;;;6.07;;
55063;SDS011;40963;52.168;21.296;2023-11-22T07:15:44;14.25;;;6.95;;
55063;SDS011;40963;52.168;21.296;2023-11-22T07:18:10;12.00;;;6.03;;
55063;SDS011;40963;52.168;21.296;2023-11-22T07:20:35;10.38;;;5.15;;
55063;SDS011;40963;52.168;21.296;2023-11-22T07:23:01;8.00;;;4.45;;
55063;SDS011;40963;52.168;21.296;2023-11-22T07:25:27;4.18;;;3.65;;
55063;SDS011;40963;52.168;21.296;2023-11-22T07:27:54;5.43;;;3.75;;
55063;SDS011;40963;52.168;21.296;2023-11-22T07:30:20;6.07;;;3.83;;
55063;SDS011;40963;52.168;21.296;2023-11-22T07:32:47;13.82;;;5.05;;
55063;SDS011;40963;52.168;21.296;2023-11-22T07:35:19;9.57;;;3.95;;
55063;SDS011;40963;52.168;21.296;2023-11-22T07:37:47;8.07;;;4.22;;
55063;SDS011;40963;52.168;21.296;2023-11-22T07:40:13;8.88;;;3.95;;
55063;SDS011;40963;52.168;21.296;2023-11-22T07:42:39;23.58;;;6.63;;
55063;SDS011;40963;52.168;21.296;2023-11-22T07:45:06;8.85;;;5.10;;
55063;SDS011;40963;52.168;21.296;2023-11-22T07:47:35;7.57;;;4.13;;
55063;SDS011;40963;52.168;21.296;2023-11-22T07:50:01;5.68;;;3.67;;
55063;SDS011;40963;52.168;21.296;2023-11-22T07:52:28;12.73;;;5.20;;
55063;SDS011;40963;52.168;21.296;2023-11-22T07:54:58;3.38;;;3.08;;
55063;SDS011;40963;52.168;21.296;2023-11-22T07:57:24;14.23;;;4.22;;
55063;SDS011;40963;52.168;21.296;2023-11-22T07:59:50;5.38;;;4.07;;
55063;SDS011;40963;52.168;21.296;2023-11-22T08:02:19;5.55;;;3.67;;
55063;SDS011;40963;52.168;21.296;2023-11-22T08:04:45;9.93;;;5.28;;
55063;SDS011;40963;52.168;21.296;2023-11-22T08:07:13;11.93;;;5.75;;
55063;SDS011;40963;52.168;21.296;2023-11-22T08:09:39;8.70;;;4.32;;
55063;SDS011;40963;52.168;21.296;2023-11-22T08:12:06;7.28;;;3.33;;
55063;SDS011;40963;52.168;21.296;2023-11-22T08:14:32;13.20;;;4.22;;
55063;SDS011;40963;52.168;21.296;2023-11-22T08:16:58;20.95;;;4.10;;
55063;SDS011;40963;52.168;21.296;2023-11-22T08:19:23;4.78;;;3.90;;
55063;SDS011;40963;52.168;21.296;2023-11-22T08:21:49;5.25;;;4.00;;
55063;SDS011;40963;52.168;21.296;2023-11-22T08:24:15;14.18;;;6.85;;
55063;SDS011;40963;52.168;21.296;2023-11-22T08:26:41;11.55;;;5.47;;
55063;SDS011;40963;52.168;21.296;2023-11-22T08:29:06;7.80;;;4.53;;
55063;SDS011;40963;52.168;21.296;2023-11-22T08:31:32;14.65;;;5.85;;
55063;SDS011;40963;52.168;21.296;2023-11-22T08:34:01;6.65;;;3.88;;
55063;SDS011;40963;52.168;21.296;2023-11-22T08:36:29;10.40;;;5.22;;
55063;SDS011;40963;52.168;21.296;2023-11-22T08:38:56;15.70;;;6.63;;
55063;SDS011;40963;52.168;21.296;2023-11-22T08:41:24;9.50;;;4.50;;
55063;SDS011;40963;52.168;21.296;2023-11-22T08:43:50;9.63;;;4.28;;
55063;SDS011;40963;52.168;21.296;2023-11-22T08:46:16;8.57;;;4.05;;
55063;SDS011;40963;52.168;21.296;2023-11-22T08:48:43;10.15;;;4.40;;
55063;SDS011;40963;52.168;21.296;2023-11-22T08:51:08;11.05;;;6.15;;
55063;SDS011;40963;52.168;21.296;2023-11-22T08:53:35;9.65;;;4.20;;
55063;SDS011;40963;52.168;21.296;2023-11-22T08:56:00;7.20;;;4.25;;
55063;SDS011;40963;52.168;21.296;2023-11-22T08:58:30;8.00;;;4.50;;
55063;SDS011;40963;52.168;21.296;2023-11-22T09:00:55;6.40;;;4.78;;
55063;SDS011;40963;52.168;21.296;2023-11-22T09:03:22;8.70;;;4.72;;
55063;SDS011;40963;52.168;21.296;2023-11-22T09:05:48;8.93;;;5.85;;
55063;SDS011;40963;52.168;21.296;2023-11-22T09:08:14;12.27;;;4.95;;
55063;SDS011;40963;52.168;21.296;2023-11-22T09:10:40;10.80;;;4.72;;
55063;SDS011;40963;52.168;21.296;2023-11-22T09:13:06;6.50;;;4.55;;
55063;SDS011;40963;52.168;21.296;2023-11-22T09:15:32;5.55;;;3.75;;
55063;SDS011;40963;52.168;21.296;2023-11-22T09:17:58;10.75;;;3.92;;
55063;SDS011;40963;52.168;21.296;2023-11-22T09:20:24;7.15;;;4.28;;
55063;SDS011;40963;52.168;21.296;2023-11-22T09:22:51;9.38;;;5.32;;
55063;SDS011;40963;52.168;21.296;2023-11-22T09:25:19;6.90;;;4.43;;
55063;SDS011;40963;52.168;21.296;2023-11-22T09:27:47;8.95;;;3.35;;
55063;SDS011;40963;52.168;21.296;2023-11-22T09:30:14;9.60;;;4.72;;
55063;SDS011;40963;52.168;21.296;2023-11-22T09:32:57;14.02;;;5.35;;
55063;SDS011;40963;52.168;21.296;2023-11-22T09:35:29;12.55;;;6.25;;
55063;SDS011;40963;52.168;21.296;2023-11-22T09:37:56;6.55;;;4.00;;
55063;SDS011;40963;52.168;21.296;2023-11-22T09:40:26;9.60;;;4.22;;
55063;SDS011;40963;52.168;21.296;2023-11-22T09:42:54;6.35;;;4.13;;
55063;SDS011;40963;52.168;21.296;2023-11-22T09:45:23;6.18;;;3.30;;
55063;SDS011;40963;52.168;21.296;2023-11-22T09:47:50;7.25;;;4.70;;
55063;SDS011;40963;52.168;21.296;2023-11-22T09:50:17;6.10;;;2.95;;
55063;SDS011;40963;52.168;21.296;2023-11-22T09:52:46;4.32;;;3.33;;
55063;SDS011;40963;52.168;21.296;2023-11-22T09:55:18;4.15;;;3.63;;
55063;SDS011;40963;52.168;21.296;2023-11-22T09:57:52;11.15;;;4.25;;
55063;SDS011;40963;52.168;21.296;2023-11-22T10:00:18;10.55;;;4.50;;
55063;SDS011;40963;52.168;21.296;2023-11-22T10:02:46;5.40;;;3.95;;
55063;SDS011;40963;52.168;21.296;2023-11-22T10:05:13;15.90;;;4.13;;
55063;SDS011;40963;52.168;21.296;2023-11-22T10:07:39;4.95;;;3.58;;
55063;SDS011;40963;52.168;21.296;2023-11-22T10:10:05;5.47;;;3.60;;
55063;SDS011;40963;52.168;21.296;2023-11-22T10:12:32;7.65;;;3.42;;
55063;SDS011;40963;52.168;21.296;2023-11-22T10:15:11;4.18;;;2.50;;
55063;SDS011;40963;52.168;21.296;2023-11-22T10:17:41;5.05;;;3.45;;
55063;SDS011;40963;52.168;21.296;2023-11-22T10:20:18;5.53;;;2.58;;
55063;SDS011;40963;52.168;21.296;2023-11-22T10:22:44;8.93;;;3.75;;
55063;SDS011;40963;52.168;21.296;2023-11-22T10:25:12;6.10;;;3.50;;
55063;SDS011;40963;52.168;21.296;2023-11-22T10:27:39;5.47;;;2.70;;
55063;SDS011;40963;52.168;21.296;2023-11-22T10:30:07;8.40;;;3.50;;
55063;SDS011;40963;52.168;21.296;2023-11-22T10:32:36;7.18;;;4.63;;
55063;SDS011;40963;52.168;21.296;2023-11-22T10:35:04;5.07;;;2.97;;
55063;SDS011;40963;52.168;21.296;2023-11-22T10:37:31;5.57;;;3.78;;
55063;SDS011;40963;52.168;21.296;2023-11-22T10:39:57;5.90;;;3.33;;
55063;SDS011;40963;52.168;21.296;2023-11-22T10:42:23;3.80;;;2.35;;
55063;SDS011;40963;52.168;21.296;2023-11-22T10:44:51;5.82;;;3.03;;
55063;SDS011;40963;52.168;21.296;2023-11-22T10:47:24;8.35;;;3.83;;
55063;SDS011;40963;52.168;21.296;2023-11-22T10:49:51;5.10;;;3.05;;
55063;SDS011;40963;52.168;21.296;2023-11-22T10:52:17;4.70;;;2.92;;
55063;SDS011;40963;52.168;21.296;2023-11-22T10:54:49;5.75;;;3.30;;
55063;SDS011;40963;52.168;21.296;2023-11-22T10:57:19;6.10;;;3.07;;
55063;SDS011;40963;52.168;21.296;2023-11-22T10:59:50;3.47;;;2.10;;
55063;SDS011;40963;52.168;21.296;2023-11-22T11:02:19;4.93;;;3.30;;
55063;SDS011;40963;52.168;21.296;2023-11-22T11:04:53;7.07;;;3.47;;
55063;SDS011;40963;52.168;21.296;2023-11-22T11:07:32;6.22;;;3.50;;
55063;SDS011;40963;52.168;21.296;2023-11-22T11:10:02;7.65;;;3.50;;
55063;SDS011;40963;52.168;21.296;2023-11-22T11:12:28;6.03;;;2.97;;
55063;SDS011;40963;52.168;21.296;2023-11-22T11:14:54;4.72;;;2.95;;
55063;SDS011;40963;52.168;21.296;2023-11-22T11:17:20;5.22;;;3.25;;
55063;SDS011;40963;52.168;21.296;2023-11-22T11:19:46;4.72;;;2.92;;
55063;SDS011;40963;52.168;21.296;2023-11-22T11:22:12;4.70;;;2.65;;
55063;SDS011;40963;52.168;21.296;2023-11-22T11:24:39;3.25;;;2.90;;
55063;SDS011;40963;52.168;21.296;2023-11-22T11:27:05;4.88;;;3.05;;
55063;SDS011;40963;52.168;21.296;2023-11-22T11:29:32;5.97;;;3.22;;
55063;SDS011;40963;52.168;21.296;2023-11-22T11:31:58;4.68;;;3.10;;
55063;SDS011;40963;52.168;21.296;2023-11-22T11:34:24;5.47;;;3.42;;
55063;SDS011;40963;52.168;21.296;2023-11-22T11:36:53;6.70;;;3.03;;
55063;SDS011;40963;52.168;21.296;2023-11-22T11:39:24;6.35;;;3.42;;
55063;SDS011;40963;52.168;21.296;2023-11-22T11:41:53;5.05;;;3.15;;
55063;SDS011;40963;52.168;21.296;2023-11-22T11:44:33;5.38;;;3.35;;
55063;SDS011;40963;52.168;21.296;2023-11-22T11:46:58;3.83;;;2.97;;
55063;SDS011;40963;52.168;21.296;2023-11-22T11:49:33;8.02;;;3.45;;
55063;SDS011;40963;52.168;21.296;2023-11-22T11:52:01;6.47;;;3.00;;
55063;SDS011;40963;52.168;21.296;2023-11-22T11:54:28;5.35;;;3.22;;
55063;SDS011;40963;52.168;21.296;2023-11-22T11:56:58;5.78;;;3.40;;
55063;SDS011;40963;52.168;21.296;2023-11-22T11:59:26;6.38;;;3.28;;
55063;SDS011;40963;52.168;21.296;2023-11-22T12:01:53;6.22;;;3.42;;
55063;SDS011;40963;52.168;21.296;2023-11-22T12:04:22;4.60;;;2.88;;
55063;SDS011;40963;52.168;21.296;2023-11-22T12:06:47;6.97;;;3.40;;
55063;SDS011;40963;52.168;21.296;2023-11-22T12:09:13;11.98;;;3.50;;
55063;SDS011;40963;52.168;21.296;2023-11-22T12:11:39;5.53;;;2.95;;
55063;SDS011;40963;52.168;21.296;2023-11-22T12:14:05;6.35;;;4.00;;
55063;SDS011;40963;52.168;21.296;2023-11-22T12:16:31;5.75;;;3.15;;
55063;SDS011;40963;52.168;21.296;2023-11-22T12:18:58;5.72;;;3.30;;
55063;SDS011;40963;52.168;21.296;2023-11-22T12:21:24;5.55;;;3.47;;
55063;SDS011;40963;52.168;21.296;2023-11-22T12:23:50;3.25;;;2.63;;
55063;SDS011;40963;52.168;21.296;2023-11-22T12:26:17;7.53;;;3.50;;
55063;SDS011;40963;52.168;21.296;2023-11-22T12:28:45;6.65;;;2.83;;
55063;SDS011;40963;52.168;21.296;2023-11-22T12:31:13;5.82;;;3.50;;
55063;SDS011;40963;52.168;21.296;2023-11-22T12:33:40;7.22;;;3.25;;
55063;SDS011;40963;52.168;21.296;2023-11-22T12:36:06;7.30;;;3.75;;
55063;SDS011;40963;52.168;21.296;2023-11-22T12:38:41;6.78;;;3.60;;
55063;SDS011;40963;52.168;21.296;2023-11-22T12:41:07;6.05;;;3.00;;
55063;SDS011;40963;52.168;21.296;2023-11-22T12:43:33;6.50;;;3.53;;
55063;SDS011;40963;52.168;21.296;2023-11-22T12:46:00;5.53;;;3.25;;
55063;SDS011;40963;52.168;21.296;2023-11-22T12:48:26;3.65;;;3.13;;
55063;SDS011;40963;52.168;21.296;2023-11-22T12:50:55;7.63;;;3.95;;
55063;SDS011;40963;52.168;21.296;2023-11-22T12:53:22;7.60;;;3.33;;
55063;SDS011;40963;52.168;21.296;2023-11-22T12:55:50;5.78;;;3.40;;
55063;SDS011;40963;52.168;21.296;2023-11-22T12:58:17;7.80;;;3.42;;
55063;SDS011;40963;52.168;21.296;2023-11-22T13:00:47;4.43;;;2.80;;
55063;SDS011;40963;52.168;21.296;2023-11-22T13:03:14;3.60;;;2.65;;
55063;SDS011;40963;52.168;21.296;2023-11-22T13:05:40;6.18;;;2.60;;
55063;SDS011;40963;52.168;21.296;2023-11-22T13:08:08;5.05;;;3.13;;
55063;SDS011;40963;52.168;21.296;2023-11-22T13:10:37;5.53;;;3.13;;
55063;SDS011;40963;52.168;21.296;2023-11-22T13:13:04;4.38;;;3.25;;
55063;SDS011;40963;52.168;21.296;2023-11-22T13:15:29;4.22;;;2.60;;
55063;SDS011;40963;52.168;21.296;2023-11-22T13:17:55;4.88;;;2.83;;
55063;SDS011;40963;52.168;21.296;2023-11-22T13:20:25;4.90;;;2.70;;
55063;SDS011;40963;52.168;21.296;2023-11-22T13:22:54;5.95;;;2.80;;
55063;SDS011;40963;52.168;21.296;2023-11-22T13:25:21;5.70;;;3.05;;
55063;SDS011;40963;52.168;21.296;2023-11-22T13:27:48;10.55;;;5.22;;
55063;SDS011;40963;52.168;21.296;2023-11-22T13:30:15;13.98;;;4.18;;
55063;SDS011;40963;52.168;21.296;2023-11-22T13:32:45;7.65;;;4.13;;
55063;SDS011;40963;52.168;21.296;2023-11-22T13:35:12;12.70;;;5.43;;
55063;SDS011;40963;52.168;21.296;2023-11-22T13:37:42;19.20;;;7.35;;
55063;SDS011;40963;52.168;21.296;2023-11-22T13:40:12;13.90;;;6.65;;
55063;SDS011;40963;52.168;21.296;2023-11-22T13:42:44;11.40;;;6.30;;
55063;SDS011;40963;52.168;21.296;2023-11-22T13:45:11;6.45;;;3.92;;
55063;SDS011;40963;52.168;21.296;2023-11-22T13:47:45;7.28;;;4.07;;
55063;SDS011;40963;52.168;21.296;2023-11-22T13:50:22;6.43;;;3.83;;
55063;SDS011;40963;52.168;21.296;2023-11-22T13:52:48;11.27;;;4.20;;
55063;SDS011;40963;52.168;21.296;2023-11-22T13:55:15;6.97;;;3.75;;
55063;SDS011;40963;52.168;21.296;2023-11-22T13:57:44;7.25;;;4.05;;
55063;SDS011;40963;52.168;21.296;2023-11-22T14:00:10;9.05;;;4.18;;
55063;SDS011;40963;52.168;21.296;2023-11-22T14:02:39;10.30;;;4.10;;
55063;SDS011;40963;52.168;21.296;2023-11-22T14:05:06;5.65;;;3.22;;
55063;SDS011;40963;52.168;21.296;2023-11-22T14:07:33;10.27;;;3.75;;
55063;SDS011;40963;52.168;21.296;2023-11-22T14:09:59;7.68;;;3.75;;
55063;SDS011;40963;52.168;21.296;2023-11-22T14:12:28;6.60;;;4.45;;
55063;SDS011;40963;52.168;21.296;2023-11-22T14:14:55;9.02;;;3.70;;
55063;SDS011;40963;52.168;21.296;2023-11-22T14:17:20;5.57;;;3.58;;
55063;SDS011;40963;52.168;21.296;2023-11-22T14:19:46;7.13;;;3.38;;
55063;SDS011;40963;52.168;21.296;2023-11-22T14:22:12;4.72;;;3.00;;
55063;SDS011;40963;52.168;21.296;2023-11-22T14:24:39;3.60;;;2.78;;
55063;SDS011;40963;52.168;21.296;2023-11-22T14:27:05;14.90;;;3.80;;
55063;SDS011;40963;52.168;21.296;2023-11-22T14:29:30;4.78;;;3.40;;